createdAt,value
2017-11-21T00:00:52.377Z,54.85
2017-11-21T00:03:18.716Z,54.85
2017-11-21T00:05:45.275Z,54.87
2017-11-21T00:08:11.487Z,54.83
2017-11-21T00:10:37.746Z,54.86
2017-11-21T00:13:03.950Z,54.85
2017-11-21T00:15:30.402Z,54.93
2017-11-21T00:17:56.654Z,54.89
2017-11-21T00:20:22.861Z,54.91
2017-11-21T00:22:49.072Z,54.86
2017-11-21T00:25:15.433Z,54.79
2017-11-21T00:27:41.653Z,54.86
2017-11-21T00:30:07.851Z,54.89
2017-11-21T00:32:34.244Z,54.87
2017-11-21T00:35:00.452Z,54.84
2017-11-21T00:37:26.676Z,54.90
2017-11-21T00:39:53.017Z,54.92
2017-11-21T00:42:19.515Z,54.92
2017-11-21T00:44:45.727Z,54.92
2017-11-21T00:47:11.994Z,54.91
2017-11-21T00:49:38.203Z,54.88
2017-11-21T00:52:04.398Z,54.88
2017-11-21T00:54:30.676Z,54.91
2017-11-21T00:56:56.884Z,55.08
2017-11-21T00:59:23.116Z,55.22
2017-11-21T01:01:49.613Z,55.35
2017-11-21T01:04:16.192Z,55.40
2017-11-21T01:06:42.383Z,56.03
2017-11-21T01:09:08.719Z,56.42
2017-11-21T01:11:34.907Z,56.67
2017-11-21T01:14:01.113Z,56.31
2017-11-21T01:16:27.352Z,56.23
2017-11-21T01:18:53.537Z,55.93
2017-11-21T01:21:19.727Z,55.81
2017-11-21T01:23:46.233Z,55.71
2017-11-21T01:26:12.668Z,55.79
2017-11-21T01:28:38.858Z,55.96
2017-11-21T01:31:05.128Z,55.88
2017-11-21T01:33:31.635Z,56.11
2017-11-21T01:35:57.848Z,56.12
2017-11-21T01:38:24.090Z,56.29
2017-11-21T01:40:50.275Z,56.32
2017-11-21T01:43:16.480Z,56.44
2017-11-21T01:45:42.748Z,56.58
2017-11-21T01:48:08.963Z,56.56
2017-11-21T01:50:35.159Z,56.64
2017-11-21T01:53:01.433Z,56.68
2017-11-21T01:55:27.663Z,56.87
2017-11-21T01:57:53.882Z,56.47
2017-11-21T02:00:20.129Z,56.38
2017-11-21T02:02:46.417Z,56.45
2017-11-21T02:05:12.616Z,56.49
2017-11-21T02:07:38.949Z,56.55
2017-11-21T02:10:05.146Z,56.49
2017-11-21T02:12:31.598Z,56.43
2017-11-21T02:14:57.922Z,56.31
2017-11-21T02:17:24.143Z,56.33
2017-11-21T02:19:50.356Z,56.25
2017-11-21T02:22:16.720Z,56.29
2017-11-21T02:24:42.933Z,56.12
2017-11-21T02:27:09.373Z,56.16
2017-11-21T02:29:35.708Z,56.14
2017-11-21T02:32:01.915Z,56.16
2017-11-21T02:34:28.193Z,56.10
2017-11-21T02:36:54.476Z,56.59
2017-11-21T02:39:20.687Z,56.76
2017-11-21T02:41:46.910Z,56.79
2017-11-21T02:44:13.490Z,56.94
2017-11-21T02:46:39.727Z,56.97
2017-11-21T02:49:05.934Z,56.87
2017-11-21T02:51:32.184Z,56.76
2017-11-21T02:53:58.454Z,56.69
2017-11-21T02:56:24.692Z,56.63
2017-11-21T02:58:50.880Z,56.79
2017-11-21T03:01:17.138Z,56.83
2017-11-21T03:03:43.333Z,56.76
2017-11-21T03:06:09.535Z,56.66
2017-11-21T03:08:36.038Z,56.75
2017-11-21T03:11:02.243Z,56.64
2017-11-21T03:13:28.448Z,56.76
2017-11-21T03:15:54.785Z,56.86
2017-11-21T03:18:20.987Z,56.84
2017-11-21T03:20:59.376Z,56.92
2017-11-21T03:23:37.560Z,56.86
2017-11-21T03:26:16.100Z,56.91
2017-11-21T03:28:42.304Z,56.90
2017-11-21T03:31:08.512Z,57.01
2017-11-21T03:33:34.843Z,56.86
2017-11-21T03:36:01.155Z,56.85
2017-11-21T03:38:27.416Z,56.78
2017-11-21T03:40:53.680Z,56.62
2017-11-21T03:43:20.113Z,56.62
2017-11-21T03:45:46.658Z,56.80
2017-11-21T03:48:12.884Z,56.63
2017-11-21T03:50:39.235Z,56.54
2017-11-21T03:53:05.438Z,56.50
2017-11-21T03:55:31.652Z,56.64
2017-11-21T03:57:57.909Z,56.62
2017-11-21T04:00:24.116Z,56.57
2017-11-21T04:02:50.331Z,56.46
2017-11-21T04:05:17.001Z,56.48
2017-11-21T04:07:43.214Z,56.88
2017-11-21T04:10:09.440Z,56.94
2017-11-21T04:12:35.702Z,56.72
2017-11-21T04:15:01.900Z,56.67
2017-11-21T04:17:28.093Z,56.75
2017-11-21T04:19:54.425Z,56.78
2017-11-21T04:22:20.638Z,56.89
2017-11-21T04:24:46.848Z,57.03
2017-11-21T04:27:13.423Z,57.14
2017-11-21T04:29:39.638Z,56.89
2017-11-21T04:32:05.855Z,56.73
2017-11-21T04:34:32.117Z,56.67
2017-11-21T04:36:58.367Z,56.51
2017-11-21T04:39:24.583Z,56.53
2017-11-21T04:41:50.841Z,56.74
2017-11-21T04:44:17.060Z,57.51
2017-11-21T04:46:43.253Z,57.64
2017-11-21T04:49:09.519Z,57.47
2017-11-21T04:51:35.728Z,57.36
2017-11-21T04:54:01.939Z,57.29
2017-11-21T04:56:28.285Z,57.19
2017-11-21T04:58:54.485Z,57.03
2017-11-21T05:01:20.706Z,57.00
2017-11-21T05:03:47.045Z,56.97
2017-11-21T05:06:13.521Z,56.89
2017-11-21T05:08:39.959Z,57.18
2017-11-21T05:11:06.257Z,57.41
2017-11-21T05:13:32.484Z,57.95
2017-11-21T05:15:58.727Z,58.10
2017-11-21T05:18:25.057Z,57.93
2017-11-21T05:20:51.259Z,57.58
2017-11-21T05:23:17.649Z,57.31
2017-11-21T05:25:43.923Z,57.20
2017-11-21T05:28:10.114Z,57.22
2017-11-21T05:30:36.319Z,57.20
2017-11-21T05:33:14.687Z,57.35
2017-11-21T05:35:40.908Z,57.29
2017-11-21T05:38:07.313Z,57.28
2017-11-21T05:40:33.659Z,57.20
2017-11-21T05:42:59.867Z,57.55
2017-11-21T05:45:26.075Z,56.66
2017-11-21T05:47:52.712Z,56.37
2017-11-21T05:50:18.928Z,56.20
2017-11-21T05:52:45.139Z,56.17
2017-11-21T05:55:11.466Z,56.12
2017-11-21T05:57:37.748Z,56.17
2017-11-21T06:00:03.965Z,56.09
2017-11-21T06:02:30.230Z,55.99
2017-11-21T06:04:56.451Z,55.96
2017-11-21T06:07:22.686Z,55.90
2017-11-21T06:09:48.988Z,55.90
2017-11-21T06:12:15.416Z,55.87
2017-11-21T06:14:41.624Z,55.80
2017-11-21T06:17:07.904Z,56.35
2017-11-21T06:19:34.094Z,56.19
2017-11-21T06:22:00.445Z,56.09
2017-11-21T06:24:26.675Z,56.06
2017-11-21T06:26:53.114Z,56.83
2017-11-21T06:29:19.461Z,57.16
2017-11-21T06:31:45.676Z,57.08
2017-11-21T06:34:11.885Z,56.93
2017-11-21T06:36:38.216Z,56.82
2017-11-21T06:39:04.429Z,56.67
2017-11-21T06:41:30.703Z,56.57
2017-11-21T06:43:57.045Z,56.51
2017-11-21T06:46:23.225Z,56.45
2017-11-21T06:48:49.417Z,56.46
2017-11-21T06:51:15.752Z,56.71
2017-11-21T06:53:41.958Z,56.57
2017-11-21T06:56:08.153Z,56.50
2017-11-21T06:58:34.400Z,56.56
2017-11-21T07:01:00.600Z,56.63
2017-11-21T07:03:26.782Z,56.64
2017-11-21T07:05:53.263Z,56.63
2017-11-21T07:08:19.473Z,56.58
2017-11-21T07:10:45.668Z,56.59
2017-11-21T07:13:11.948Z,56.69
2017-11-21T07:15:38.148Z,56.66
2017-11-21T07:18:04.366Z,57.05
2017-11-21T07:20:30.700Z,56.96
2017-11-21T07:22:56.933Z,56.52
2017-11-21T07:25:23.144Z,56.31
2017-11-21T07:27:49.636Z,56.17
2017-11-21T07:30:16.079Z,56.06
2017-11-21T07:32:42.270Z,56.08
2017-11-21T07:35:08.530Z,56.03
2017-11-21T07:37:34.898Z,55.94
2017-11-21T07:40:01.333Z,55.84
2017-11-21T07:42:27.619Z,55.75
2017-11-21T07:44:53.827Z,55.67
2017-11-21T07:47:20.046Z,55.54
2017-11-21T07:49:46.529Z,55.48
2017-11-21T07:52:12.971Z,55.41
2017-11-21T07:54:39.207Z,55.41
2017-11-21T07:57:05.553Z,55.33
2017-11-21T07:59:31.786Z,55.31
2017-11-21T08:01:57.967Z,55.30
2017-11-21T08:04:24.297Z,55.37
2017-11-21T08:06:50.520Z,55.24
2017-11-21T08:09:16.734Z,55.29
2017-11-21T08:11:43.053Z,55.30
2017-11-21T08:14:09.259Z,55.33
2017-11-21T08:16:35.470Z,55.23
2017-11-21T08:19:01.758Z,55.14
2017-11-21T08:21:27.940Z,55.03
2017-11-21T08:23:54.491Z,54.98
2017-11-21T08:26:20.835Z,54.98
2017-11-21T08:28:47.051Z,54.99
2017-11-21T08:31:13.252Z,54.96
2017-11-21T08:33:39.549Z,54.91
2017-11-21T08:36:05.759Z,54.92
2017-11-21T08:38:31.978Z,54.93
2017-11-21T08:40:58.296Z,54.97
2017-11-21T08:43:24.503Z,54.95
2017-11-21T08:45:50.720Z,54.92
2017-11-21T08:48:16.948Z,54.87
2017-11-21T08:50:43.158Z,54.82
2017-11-21T08:53:09.508Z,54.82
2017-11-21T08:55:35.733Z,54.82
2017-11-21T08:58:01.941Z,54.83
2017-11-21T09:00:28.302Z,54.79
2017-11-21T09:02:54.831Z,54.73
2017-11-21T09:05:21.047Z,54.72
2017-11-21T09:07:47.548Z,54.65
2017-11-21T09:10:13.791Z,54.64
2017-11-21T09:12:40.013Z,54.59
2017-11-21T09:15:06.336Z,54.55
2017-11-21T09:17:32.538Z,54.53
2017-11-21T09:19:58.744Z,54.56
2017-11-21T09:22:25.093Z,54.54
2017-11-21T09:24:51.538Z,54.49
2017-11-21T09:27:17.780Z,54.45
2017-11-21T09:29:44.068Z,54.38
2017-11-21T09:32:10.287Z,54.36
2017-11-21T09:34:36.487Z,54.38
2017-11-21T09:37:02.861Z,54.32
2017-11-21T09:39:29.111Z,54.20
2017-11-21T09:41:55.426Z,54.10
2017-11-21T09:44:21.760Z,54.00
2017-11-21T09:46:47.956Z,53.96
2017-11-21T09:49:14.174Z,53.92
2017-11-21T09:51:40.755Z,53.92
2017-11-21T09:54:07.216Z,53.89
2017-11-21T09:56:33.432Z,53.89
2017-11-21T09:58:59.941Z,53.84
2017-11-21T10:01:26.171Z,53.81
2017-11-21T10:03:52.387Z,53.76
2017-11-21T10:06:18.725Z,53.72
2017-11-21T10:08:44.953Z,53.73
2017-11-21T10:11:11.165Z,53.77
2017-11-21T10:13:37.520Z,53.82
2017-11-21T10:16:03.783Z,53.75
2017-11-21T10:18:30.014Z,53.72
2017-11-21T10:20:56.310Z,53.66
2017-11-21T10:23:22.525Z,53.63
2017-11-21T10:25:48.735Z,53.66
2017-11-21T10:28:15.256Z,53.63
2017-11-21T10:30:41.682Z,53.57
2017-11-21T10:33:08.167Z,53.63
2017-11-21T10:35:34.507Z,53.61
2017-11-21T10:38:00.692Z,53.56
2017-11-21T10:40:27.084Z,53.58
2017-11-21T10:42:53.366Z,53.64
2017-11-21T10:45:19.716Z,53.61
2017-11-21T10:47:45.952Z,53.61
2017-11-21T10:50:12.211Z,53.67
2017-11-21T10:52:38.678Z,53.64
2017-11-21T10:55:05.242Z,53.63
2017-11-21T10:57:31.842Z,53.64
2017-11-21T10:59:58.055Z,53.64
2017-11-21T11:02:24.277Z,53.56
2017-11-21T11:04:50.564Z,53.55
2017-11-21T11:07:16.843Z,53.48
2017-11-21T11:09:43.074Z,53.50
2017-11-21T11:12:09.354Z,53.44
2017-11-21T11:14:35.594Z,53.30
2017-11-21T11:17:01.821Z,53.30
2017-11-21T11:19:28.112Z,53.48
2017-11-21T11:21:54.587Z,53.57
2017-11-21T11:24:20.801Z,53.51
2017-11-21T11:26:47.158Z,53.70
2017-11-21T11:29:13.659Z,54.33
2017-11-21T11:31:39.881Z,54.43
2017-11-21T11:34:06.166Z,54.49
2017-11-21T11:36:32.632Z,54.45
2017-11-21T11:38:58.871Z,54.51
2017-11-21T11:41:25.163Z,54.48
2017-11-21T11:43:51.381Z,54.45
2017-11-21T11:46:17.702Z,54.32
2017-11-21T11:48:44.053Z,54.30
2017-11-21T11:51:10.510Z,54.38
2017-11-21T11:53:36.969Z,54.40
2017-11-21T11:56:03.241Z,54.31
2017-11-21T11:58:29.456Z,54.29
2017-11-21T12:00:55.703Z,54.25
2017-11-21T12:03:21.980Z,54.11
2017-11-21T12:05:48.282Z,53.93
2017-11-21T12:08:20.497Z,54.36
2017-11-21T12:10:46.858Z,54.48
2017-11-21T12:13:13.222Z,54.49
2017-11-21T12:15:39.675Z,54.35
2017-11-21T12:18:06.090Z,54.36
2017-11-21T12:20:32.303Z,54.35
2017-11-21T12:22:58.534Z,54.35
2017-11-21T12:25:25.145Z,54.23
2017-11-21T12:27:51.359Z,54.28
2017-11-21T12:30:17.659Z,54.98
2017-11-21T12:32:44.001Z,55.58
2017-11-21T12:35:10.236Z,55.72
2017-11-21T12:37:36.524Z,55.67
2017-11-21T12:40:02.824Z,55.56
2017-11-21T12:42:29.105Z,55.63
2017-11-21T12:44:55.339Z,55.43
2017-11-21T12:47:21.817Z,55.40
2017-11-21T12:49:48.072Z,55.40
2017-11-21T12:52:14.363Z,55.39
2017-11-21T12:54:41.040Z,55.33
2017-11-21T12:57:07.545Z,55.32
2017-11-21T12:59:33.767Z,55.33
2017-11-21T13:02:00.370Z,55.40
2017-11-21T13:04:26.596Z,55.10
2017-11-21T13:06:53.070Z,54.63
2017-11-21T13:09:19.417Z,54.41
2017-11-21T13:11:45.783Z,54.29
2017-11-21T13:14:12.055Z,54.23
2017-11-21T13:16:38.388Z,54.17
2017-11-21T13:19:04.626Z,54.12
2017-11-21T13:21:30.931Z,54.16
2017-11-21T13:23:57.425Z,54.21
2017-11-21T13:26:23.737Z,54.17
2017-11-21T13:28:50.047Z,54.18
2017-11-21T13:31:16.402Z,54.15
2017-11-21T13:33:42.954Z,54.17
2017-11-21T13:36:09.525Z,54.15
2017-11-21T13:38:35.836Z,54.15
2017-11-21T13:41:02.197Z,54.07
2017-11-21T13:43:28.439Z,54.04
2017-11-21T13:45:54.802Z,53.99
2017-11-21T13:48:21.043Z,54.18
2017-11-21T13:50:47.384Z,54.34
2017-11-21T13:53:13.706Z,54.33
2017-11-21T13:55:39.951Z,54.14
2017-11-21T13:58:06.159Z,54.10
2017-11-21T14:00:32.563Z,54.14
2017-11-21T14:02:58.818Z,54.15
2017-11-21T14:05:32.451Z,54.18
2017-11-21T14:07:58.983Z,54.17
2017-11-21T14:10:25.202Z,54.09
2017-11-21T14:12:51.475Z,54.12
2017-11-21T14:15:18.011Z,54.12
2017-11-21T14:17:44.232Z,54.11
2017-11-21T14:20:10.519Z,54.09
2017-11-21T14:22:36.790Z,54.08
2017-11-21T14:25:03.027Z,54.17
2017-11-21T14:27:29.679Z,54.15
2017-11-21T14:29:56.165Z,54.16
2017-11-21T14:32:22.597Z,54.11
2017-11-21T14:34:49.055Z,54.11
2017-11-21T14:37:15.346Z,54.13
2017-11-21T14:39:41.540Z,54.08
2017-11-21T14:42:07.766Z,54.08
2017-11-21T14:44:34.187Z,54.07
2017-11-21T14:47:00.668Z,54.09
2017-11-21T14:49:26.889Z,54.10
2017-11-21T14:51:53.183Z,54.15
2017-11-21T14:54:19.389Z,54.12
2017-11-21T14:56:45.615Z,54.11
2017-11-21T14:59:11.963Z,54.08
2017-11-21T15:01:38.188Z,54.09
2017-11-21T15:04:04.425Z,54.11
2017-11-21T15:06:31.036Z,54.12
2017-11-21T15:08:57.242Z,54.12
2017-11-21T15:11:23.471Z,54.15
2017-11-21T15:13:49.831Z,54.07
2017-11-21T15:16:16.049Z,54.08
2017-11-21T15:18:42.247Z,54.11
2017-11-21T15:21:08.508Z,54.06
2017-11-21T15:23:34.728Z,54.07
2017-11-21T15:26:01.448Z,54.05
2017-11-21T15:28:27.826Z,54.03
2017-11-21T15:30:54.060Z,54.02
2017-11-21T15:33:20.260Z,53.93
2017-11-21T15:35:46.615Z,53.95
2017-11-21T15:38:12.849Z,53.90
2017-11-21T15:40:39.067Z,53.89
2017-11-21T15:43:05.411Z,53.88
2017-11-21T15:45:31.625Z,53.98
2017-11-21T15:47:57.873Z,54.05
2017-11-21T15:50:24.260Z,54.04
2017-11-21T15:52:50.513Z,53.95
2017-11-21T15:55:16.741Z,54.08
2017-11-21T15:57:43.018Z,54.06
2017-11-21T16:00:09.247Z,53.98
2017-11-21T16:02:35.451Z,53.99
2017-11-21T16:05:01.786Z,53.99
2017-11-21T16:07:28.011Z,54.07
2017-11-21T16:09:54.227Z,54.03
2017-11-21T16:12:20.573Z,53.94
2017-11-21T16:14:46.804Z,53.94
2017-11-21T16:17:13.031Z,53.96
2017-11-21T16:19:39.422Z,53.96
2017-11-21T16:22:05.631Z,53.94
2017-11-21T16:24:31.838Z,53.91
2017-11-21T16:26:58.101Z,53.91
2017-11-21T16:29:24.296Z,53.86
2017-11-21T16:31:50.508Z,53.85
2017-11-21T16:34:16.781Z,53.87
2017-11-21T16:36:42.992Z,53.87
2017-11-21T16:39:09.231Z,53.85
2017-11-21T16:41:35.559Z,53.85
2017-11-21T16:44:01.763Z,53.84
2017-11-21T16:46:27.997Z,53.86
2017-11-21T16:48:54.343Z,53.86
2017-11-21T16:51:20.976Z,53.87
2017-11-21T16:53:47.499Z,53.89
2017-11-21T16:56:13.845Z,53.88
2017-11-21T16:58:40.063Z,53.82
2017-11-21T17:01:06.269Z,53.77
2017-11-21T17:03:32.548Z,53.77
2017-11-21T17:05:58.761Z,53.80
2017-11-21T17:08:25.377Z,53.78
2017-11-21T17:10:53.444Z,53.80
2017-11-21T17:13:20.067Z,53.82
2017-11-21T17:15:46.488Z,53.84
2017-11-21T17:18:12.896Z,53.91
2017-11-21T17:20:39.342Z,54.34
2017-11-21T17:23:05.700Z,54.66
2017-11-21T17:25:31.982Z,54.63
2017-11-21T17:27:58.210Z,54.71
2017-11-21T17:30:24.433Z,54.77
2017-11-21T17:32:50.776Z,54.90
2017-11-21T17:35:17.322Z,54.96
2017-11-21T17:37:43.540Z,54.97
2017-11-21T17:40:09.821Z,54.95
2017-11-21T17:42:36.147Z,54.97
2017-11-21T17:45:02.353Z,55.00
2017-11-21T17:47:28.942Z,55.09
2017-11-21T17:49:57.575Z,55.20
2017-11-21T17:52:23.801Z,55.18
2017-11-21T17:54:50.079Z,55.24
2017-11-21T17:57:16.564Z,55.29
2017-11-21T17:59:42.804Z,55.25
2017-11-21T18:02:09.088Z,55.31
2017-11-21T18:04:35.300Z,55.30
2017-11-21T18:07:01.579Z,55.44
2017-11-21T18:09:28.084Z,55.57
2017-11-21T18:11:54.291Z,55.54
2017-11-21T18:14:20.491Z,55.47
2017-11-21T18:16:46.850Z,55.27
2017-11-21T18:19:13.075Z,55.19
2017-11-21T18:21:39.299Z,55.19
2017-11-21T18:24:05.634Z,55.19
2017-11-21T18:26:32.074Z,55.23
2017-11-21T18:28:58.267Z,55.30
2017-11-21T18:31:24.548Z,55.34
2017-11-21T18:33:50.747Z,55.24
2017-11-21T18:36:16.943Z,55.18
2017-11-21T18:38:43.209Z,55.23
2017-11-21T18:41:09.652Z,55.31
2017-11-21T18:43:35.864Z,55.61
2017-11-21T18:46:02.149Z,55.71
2017-11-21T18:48:28.376Z,55.79
2017-11-21T18:50:54.802Z,55.68
2017-11-21T18:53:20.985Z,55.73
2017-11-21T18:55:47.185Z,55.64
2017-11-21T18:58:13.541Z,55.58
2017-11-21T19:00:39.740Z,55.58
2017-11-21T19:03:06.140Z,55.61
2017-11-21T19:05:32.403Z,55.64
2017-11-21T19:07:58.593Z,55.67
2017-11-21T19:10:24.789Z,55.60
2017-11-21T19:12:51.050Z,55.59
2017-11-21T19:15:17.350Z,55.66
2017-11-21T19:17:43.649Z,55.99
2017-11-21T19:20:09.913Z,56.11
2017-11-21T19:22:36.115Z,56.23
2017-11-21T19:25:02.319Z,56.10
2017-11-21T19:27:28.893Z,56.10
2017-11-21T19:29:55.078Z,56.06
2017-11-21T19:32:21.294Z,56.13
2017-11-21T19:34:47.682Z,56.33
2017-11-21T19:37:13.896Z,56.30
2017-11-21T19:39:40.115Z,56.30
2017-11-21T19:42:06.684Z,56.24
2017-11-21T19:44:32.888Z,56.25
2017-11-21T19:46:59.099Z,56.34
2017-11-21T19:49:25.690Z,56.34
2017-11-21T19:51:51.965Z,56.23
2017-11-21T19:54:18.331Z,56.45
2017-11-21T19:56:44.859Z,56.59
2017-11-21T19:59:13.979Z,56.63
2017-11-21T20:01:40.175Z,56.80
2017-11-21T20:04:06.443Z,56.57
2017-11-21T20:06:32.705Z,56.35
2017-11-21T20:09:00.049Z,56.44
2017-11-21T20:11:26.447Z,56.64
2017-11-21T20:13:52.679Z,56.90
2017-11-21T20:16:18.892Z,56.99
2017-11-21T20:18:46.075Z,57.12
2017-11-21T20:21:12.264Z,56.78
2017-11-21T20:23:39.337Z,56.71
2017-11-21T20:26:05.691Z,56.71
2017-11-21T20:28:31.968Z,56.73
2017-11-21T20:30:59.208Z,56.76
2017-11-21T20:33:25.515Z,56.72
2017-11-21T20:35:51.753Z,56.65
2017-11-21T20:38:18.835Z,56.69
2017-11-21T20:40:45.166Z,56.76
2017-11-21T20:43:11.431Z,56.88
2017-11-21T20:45:37.635Z,56.99
2017-11-21T20:48:04.183Z,57.00
2017-11-21T20:50:30.391Z,56.93
2017-11-21T20:52:56.628Z,56.99
2017-11-21T20:55:23.217Z,56.94
2017-11-21T20:57:49.665Z,56.89
2017-11-21T21:00:18.803Z,56.93
2017-11-21T21:02:45.208Z,57.12
2017-11-21T21:05:11.417Z,57.13
2017-11-21T21:07:37.956Z,57.16
2017-11-21T21:10:04.225Z,57.22
2017-11-21T21:12:30.492Z,57.24
2017-11-21T21:14:56.709Z,57.21
2017-11-21T21:17:23.051Z,57.27
2017-11-21T21:19:49.337Z,57.13
2017-11-21T21:22:15.571Z,57.14
2017-11-21T21:24:41.921Z,57.00
2017-11-21T21:27:20.548Z,56.96
2017-11-21T21:29:46.916Z,57.06
2017-11-21T21:32:13.210Z,57.07
2017-11-21T21:34:39.411Z,57.06
2017-11-21T21:37:05.782Z,56.98
2017-11-21T21:39:32.065Z,56.94
2017-11-21T21:41:58.311Z,56.95
2017-11-21T21:44:24.734Z,56.94
2017-11-21T21:46:50.938Z,56.92
2017-11-21T21:49:17.153Z,56.96
2017-11-21T21:51:43.424Z,56.99
2017-11-21T21:54:09.664Z,57.10
2017-11-21T21:56:35.913Z,57.06
2017-11-21T21:59:02.215Z,57.13
2017-11-21T22:01:28.810Z,57.08
2017-11-21T22:03:55.029Z,57.05
2017-11-21T22:06:21.278Z,57.04
2017-11-21T22:08:47.497Z,57.10
2017-11-21T22:11:13.951Z,57.20
2017-11-21T22:13:40.236Z,57.15
2017-11-21T22:16:06.519Z,57.01
2017-11-21T22:18:32.847Z,57.05
2017-11-21T22:20:59.213Z,56.97
2017-11-21T22:23:25.635Z,56.98
2017-11-21T22:25:52.059Z,56.93
2017-11-21T22:28:18.478Z,56.79
2017-11-21T22:30:44.972Z,56.77
2017-11-21T22:33:11.225Z,56.70
2017-11-21T22:35:37.870Z,56.83
2017-11-21T22:38:04.237Z,57.01
2017-11-21T22:40:31.121Z,57.17
2017-11-21T22:42:57.606Z,57.23
2017-11-21T22:45:24.148Z,57.27
2017-11-21T22:47:50.434Z,57.32
2017-11-21T22:50:16.787Z,57.48
2017-11-21T22:52:44.197Z,57.39
2017-11-21T22:55:10.585Z,57.45
2017-11-21T22:57:37.988Z,57.41
2017-11-21T23:00:05.293Z,57.38
2017-11-21T23:02:31.620Z,57.31
2017-11-21T23:04:57.972Z,57.33
2017-11-21T23:07:24.194Z,57.41
2017-11-21T23:09:50.449Z,57.37
2017-11-21T23:12:16.775Z,57.31
2017-11-21T23:14:43.142Z,57.30
2017-11-21T23:17:09.434Z,57.17
2017-11-21T23:19:35.877Z,57.22
2017-11-21T23:22:02.138Z,57.22
2017-11-21T23:24:28.760Z,57.27
2017-11-21T23:26:58.473Z,57.28
2017-11-21T23:29:26.569Z,57.19
2017-11-21T23:31:52.881Z,57.11
2017-11-21T23:34:24.575Z,57.10
2017-11-21T23:36:50.889Z,57.04
2017-11-21T23:39:17.396Z,57.08
2017-11-21T23:41:43.732Z,57.06
2017-11-21T23:44:10.134Z,57.23
2017-11-21T23:46:37.707Z,56.84
2017-11-21T23:49:04.054Z,56.66
2017-11-21T23:51:30.387Z,56.54
2017-11-21T23:53:56.918Z,56.44
2017-11-21T23:56:23.209Z,56.30
2017-11-21T23:58:49.463Z,56.27
